sensor_id;sensor_type;location;lat;lon;timestamp;temperature;humidity
6740;DHT22;3407;49.882;10.920;2023-08-07T00:00:08;12.80;78.10
6740;DHT22;3407;49.882;10.920;2023-08-07T00:05:05;12.90;78.50
6740;DHT22;3407;49.882;10.920;2023-08-07T00:10:01;12.90;78.10
6740;DHT22;3407;49.882;10.920;2023-08-07T00:14:58;12.90;79.30
6740;DHT22;3407;49.882;10.920;2023-08-07T00:19:54;12.90;78.40
6740;DHT22;3407;49.882;10.920;2023-08-07T00:24:49;12.90;79.90
6740;DHT22;3407;49.882;10.920;2023-08-07T00:29:45;12.90;79.40
6740;DHT22;3407;49.882;10.920;2023-08-07T00:34:40;12.90;78.50
6740;DHT22;3407;49.882;10.920;2023-08-07T00:39:36;12.90;78.90
6740;DHT22;3407;49.882;10.920;2023-08-07T00:44:31;12.90;79.30
6740;DHT22;3407;49.882;10.920;2023-08-07T00:49:27;12.90;78.70
6740;DHT22;3407;49.882;10.920;2023-08-07T00:54:23;12.90;78.60
6740;DHT22;3407;49.882;10.920;2023-08-07T00:59:21;12.90;78.40
6740;DHT22;3407;49.882;10.920;2023-08-07T01:04:16;12.90;79.30
6740;DHT22;3407;49.882;10.920;2023-08-07T01:09:12;12.90;79.30
6740;DHT22;3407;49.882;10.920;2023-08-07T01:14:22;12.80;79.80
6740;DHT22;3407;49.882;10.920;2023-08-07T01:19:28;12.90;80.90
6740;DHT22;3407;49.882;10.920;2023-08-07T01:24:23;12.90;81.10
6740;DHT22;3407;49.882;10.920;2023-08-07T01:29:27;12.80;80.80
6740;DHT22;3407;49.882;10.920;2023-08-07T01:34:25;12.80;80.90
6740;DHT22;3407;49.882;10.920;2023-08-07T01:39:22;12.80;79.80
6740;DHT22;3407;49.882;10.920;2023-08-07T01:44:19;12.70;79.80
6740;DHT22;3407;49.882;10.920;2023-08-07T01:49:14;12.70;80.30
6740;DHT22;3407;49.882;10.920;2023-08-07T01:54:10;12.70;79.80
6740;DHT22;3407;49.882;10.920;2023-08-07T01:59:05;12.70;81.00
6740;DHT22;3407;49.882;10.920;2023-08-07T02:04:01;12.70;80.40
6740;DHT22;3407;49.882;10.920;2023-08-07T02:08:56;12.60;79.50
6740;DHT22;3407;49.882;10.920;2023-08-07T02:13:52;12.60;79.50
6740;DHT22;3407;49.882;10.920;2023-08-07T02:18:47;12.60;79.70
6740;DHT22;3407;49.882;10.920;2023-08-07T02:23:43;12.60;79.30
6740;DHT22;3407;49.882;10.920;2023-08-07T02:28:38;12.60;81.20
6740;DHT22;3407;49.882;10.920;2023-08-07T02:33:34;12.60;81.50
6740;DHT22;3407;49.882;10.920;2023-08-07T02:38:29;12.60;80.30
6740;DHT22;3407;49.882;10.920;2023-08-07T02:43:25;12.50;78.60
6740;DHT22;3407;49.882;10.920;2023-08-07T02:48:22;12.50;79.80
6740;DHT22;3407;49.882;10.920;2023-08-07T02:53:17;12.40;80.00
6740;DHT22;3407;49.882;10.920;2023-08-07T02:58:13;12.40;80.00
6740;DHT22;3407;49.882;10.920;2023-08-07T03:03:09;12.40;78.60
6740;DHT22;3407;49.882;10.920;2023-08-07T03:08:04;12.40;79.60
6740;DHT22;3407;49.882;10.920;2023-08-07T03:12:59;12.40;80.00
6740;DHT22;3407;49.882;10.920;2023-08-07T03:17:55;12.40;78.80
6740;DHT22;3407;49.882;10.920;2023-08-07T03:22:50;12.40;79.30
6740;DHT22;3407;49.882;10.920;2023-08-07T03:27:46;12.40;80.00
6740;DHT22;3407;49.882;10.920;2023-08-07T03:32:41;12.40;81.00
6740;DHT22;3407;49.882;10.920;2023-08-07T03:37:37;12.40;80.50
6740;DHT22;3407;49.882;10.920;2023-08-07T03:42:32;12.30;79.30
6740;DHT22;3407;49.882;10.920;2023-08-07T03:47:28;12.30;79.80
6740;DHT22;3407;49.882;10.920;2023-08-07T03:52:23;12.20;79.60
6740;DHT22;3407;49.882;10.920;2023-08-07T03:57:19;12.20;79.80
6740;DHT22;3407;49.882;10.920;2023-08-07T04:02:14;12.20;80.90
6740;DHT22;3407;49.882;10.920;2023-08-07T04:07:10;12.20;81.20
6740;DHT22;3407;49.882;10.920;2023-08-07T04:12:06;12.20;81.40
6740;DHT22;3407;49.882;10.920;2023-08-07T04:17:01;12.20;80.80
6740;DHT22;3407;49.882;10.920;2023-08-07T04:21:57;12.20;80.20
6740;DHT22;3407;49.882;10.920;2023-08-07T04:26:53;12.20;80.70
6740;DHT22;3407;49.882;10.920;2023-08-07T04:31:48;12.20;81.10
6740;DHT22;3407;49.882;10.920;2023-08-07T04:36:44;12.20;80.20
6740;DHT22;3407;49.882;10.920;2023-08-07T04:41:39;12.10;77.50
6740;DHT22;3407;49.882;10.920;2023-08-07T04:46:36;12.10;78.40
6740;DHT22;3407;49.882;10.920;2023-08-07T04:51:31;12.10;80.00
6740;DHT22;3407;49.882;10.920;2023-08-07T04:56:27;12.10;78.30
6740;DHT22;3407;49.882;10.920;2023-08-07T05:01:22;12.10;79.00
6740;DHT22;3407;49.882;10.920;2023-08-07T05:06:18;12.10;79.00
6740;DHT22;3407;49.882;10.920;2023-08-07T05:11:14;12.10;78.30
6740;DHT22;3407;49.882;10.920;2023-08-07T13:22:54;16.10;99.90
6740;DHT22;3407;49.882;10.920;2023-08-07T13:27:50;15.80;1.00
6740;DHT22;3407;49.882;10.920;2023-08-07T13:32:45;15.50;1.00
6740;DHT22;3407;49.882;10.920;2023-08-07T13:37:41;15.40;99.90
6740;DHT22;3407;49.882;10.920;2023-08-07T13:42:36;15.40;99.90
6740;DHT22;3407;49.882;10.920;2023-08-07T13:47:34;15.30;99.90
6740;DHT22;3407;49.882;10.920;2023-08-07T13:52:30;15.20;99.90
6740;DHT22;3407;49.882;10.920;2023-08-07T13:57:26;15.10;99.80
6740;DHT22;3407;49.882;10.920;2023-08-07T14:02:21;15.10;1.00
6740;DHT22;3407;49.882;10.920;2023-08-07T14:07:17;15.10;99.90
6740;DHT22;3407;49.882;10.920;2023-08-07T14:12:13;15.30;19.70
6740;DHT22;3407;49.882;10.920;2023-08-07T14:17:08;15.50;99.90
6740;DHT22;3407;49.882;10.920;2023-08-07T14:22:04;15.70;1.00
6740;DHT22;3407;49.882;10.920;2023-08-07T14:26:59;15.80;99.90
6740;DHT22;3407;49.882;10.920;2023-08-07T14:31:55;15.90;99.90
6740;DHT22;3407;49.882;10.920;2023-08-07T14:36:50;15.70;99.90
6740;DHT22;3407;49.882;10.920;2023-08-07T14:41:47;15.60;99.90
6740;DHT22;3407;49.882;10.920;2023-08-07T14:46:43;16.00;99.90
6740;DHT22;3407;49.882;10.920;2023-08-07T14:51:39;16.70;99.90
6740;DHT22;3407;49.882;10.920;2023-08-07T14:56:34;17.60;99.90
6740;DHT22;3407;49.882;10.920;2023-08-07T15:01:30;18.30;70.70
6740;DHT22;3407;49.882;10.920;2023-08-07T15:06:25;18.30;1.00
6740;DHT22;3407;49.882;10.920;2023-08-07T15:11:21;18.10;1.00
6740;DHT22;3407;49.882;10.920;2023-08-07T15:16:16;18.30;1.00
6740;DHT22;3407;49.882;10.920;2023-08-07T15:21:12;18.50;1.00
6740;DHT22;3407;49.882;10.920;2023-08-07T15:26:07;18.60;1.00
6740;DHT22;3407;49.882;10.920;2023-08-07T15:31:03;18.60;1.00
6740;DHT22;3407;49.882;10.920;2023-08-07T15:36:00;18.50;1.00
6740;DHT22;3407;49.882;10.920;2023-08-07T15:40:55;18.80;1.00
6740;DHT22;3407;49.882;10.920;2023-08-07T15:45:51;18.90;1.00
6740;DHT22;3407;49.882;10.920;2023-08-07T15:50:49;18.90;1.00
6740;DHT22;3407;49.882;10.920;2023-08-07T15:55:44;18.50;1.00
6740;DHT22;3407;49.882;10.920;2023-08-07T16:00:40;18.40;1.00
6740;DHT22;3407;49.882;10.920;2023-08-07T16:05:37;18.50;1.00
6740;DHT22;3407;49.882;10.920;2023-08-07T16:10:32;18.40;1.00
6740;DHT22;3407;49.882;10.920;2023-08-07T16:15:28;18.40;1.00
6740;DHT22;3407;49.882;10.920;2023-08-07T16:20:23;18.30;1.00
6740;DHT22;3407;49.882;10.920;2023-08-07T16:25:19;18.00;1.00
6740;DHT22;3407;49.882;10.920;2023-08-07T16:30:14;17.60;1.00
6740;DHT22;3407;49.882;10.920;2023-08-07T16:35:10;17.50;1.00
6740;DHT22;3407;49.882;10.920;2023-08-07T16:40:06;17.50;1.00
6740;DHT22;3407;49.882;10.920;2023-08-07T16:45:02;17.40;1.00
6740;DHT22;3407;49.882;10.920;2023-08-07T16:49:58;17.30;1.00
6740;DHT22;3407;49.882;10.920;2023-08-07T16:54:54;17.20;1.00
6740;DHT22;3407;49.882;10.920;2023-08-07T16:59:50;17.20;1.00
6740;DHT22;3407;49.882;10.920;2023-08-07T17:04:45;17.40;1.00
6740;DHT22;3407;49.882;10.920;2023-08-07T17:09:41;17.50;1.00
6740;DHT22;3407;49.882;10.920;2023-08-07T17:14:36;17.50;1.00
6740;DHT22;3407;49.882;10.920;2023-08-07T17:19:32;17.20;1.00
6740;DHT22;3407;49.882;10.920;2023-08-07T17:24:27;16.90;1.00
6740;DHT22;3407;49.882;10.920;2023-08-07T17:29:23;16.70;1.00
6740;DHT22;3407;49.882;10.920;2023-08-07T17:34:18;16.70;1.00
6740;DHT22;3407;49.882;10.920;2023-08-07T17:39:14;16.80;1.00
6740;DHT22;3407;49.882;10.920;2023-08-07T17:44:11;16.70;1.00
6740;DHT22;3407;49.882;10.920;2023-08-07T17:49:07;16.50;1.00
6740;DHT22;3407;49.882;10.920;2023-08-07T17:54:03;16.30;99.90
6740;DHT22;3407;49.882;10.920;2023-08-07T17:58:58;16.10;99.90
6740;DHT22;3407;49.882;10.920;2023-08-07T18:03:54;16.00;99.90
6740;DHT22;3407;49.882;10.920;2023-08-07T18:08:51;15.90;99.90
6740;DHT22;3407;49.882;10.920;2023-08-07T18:13:47;15.80;1.00
6740;DHT22;3407;49.882;10.920;2023-08-07T18:18:42;15.60;99.90
6740;DHT22;3407;49.882;10.920;2023-08-07T18:23:38;15.50;1.00
6740;DHT22;3407;49.882;10.920;2023-08-07T18:28:34;15.40;99.90
6740;DHT22;3407;49.882;10.920;2023-08-07T18:33:30;15.20;99.90
6740;DHT22;3407;49.882;10.920;2023-08-07T18:38:27;15.10;1.00
6740;DHT22;3407;49.882;10.920;2023-08-07T18:43:23;15.00;1.00
6740;DHT22;3407;49.882;10.920;2023-08-07T18:48:18;14.80;99.90
6740;DHT22;3407;49.882;10.920;2023-08-07T18:53:14;14.70;1.00
6740;DHT22;3407;49.882;10.920;2023-08-07T18:58:09;14.60;1.00
6740;DHT22;3407;49.882;10.920;2023-08-07T19:03:05;14.40;1.00
6740;DHT22;3407;49.882;10.920;2023-08-07T19:08:00;14.30;99.90
6740;DHT22;3407;49.882;10.920;2023-08-07T19:12:56;14.20;1.00
6740;DHT22;3407;49.882;10.920;2023-08-07T19:17:52;14.00;99.90
6740;DHT22;3407;49.882;10.920;2023-08-07T19:22:47;13.80;99.90
6740;DHT22;3407;49.882;10.920;2023-08-07T19:27:43;13.70;1.00
6740;DHT22;3407;49.882;10.920;2023-08-07T19:32:38;13.60;14.50
6740;DHT22;3407;49.882;10.920;2023-08-07T19:37:34;13.60;99.90
6740;DHT22;3407;49.882;10.920;2023-08-07T19:42:29;13.80;99.90
6740;DHT22;3407;49.882;10.920;2023-08-07T19:47:25;13.90;99.90
6740;DHT22;3407;49.882;10.920;2023-08-07T19:52:21;14.00;99.90
6740;DHT22;3407;49.882;10.920;2023-08-07T19:57:16;14.00;99.90
6740;DHT22;3407;49.882;10.920;2023-08-07T20:02:12;14.10;99.90
6740;DHT22;3407;49.882;10.920;2023-08-07T20:07:08;14.20;49.90
6740;DHT22;3407;49.882;10.920;2023-08-07T20:12:04;14.20;99.90
6740;DHT22;3407;49.882;10.920;2023-08-07T20:17:10;14.30;1.00
6740;DHT22;3407;49.882;10.920;2023-08-07T20:22:06;14.30;31.80
6740;DHT22;3407;49.882;10.920;2023-08-07T20:27:01;14.30;1.00
6740;DHT22;3407;49.882;10.920;2023-08-07T20:31:57;14.30;99.90
6740;DHT22;3407;49.882;10.920;2023-08-07T20:36:54;14.30;96.20
6740;DHT22;3407;49.882;10.920;2023-08-07T20:41:49;14.20;1.00
6740;DHT22;3407;49.882;10.920;2023-08-07T20:46:45;14.20;99.90
6740;DHT22;3407;49.882;10.920;2023-08-07T20:51:40;14.10;1.00
6740;DHT22;3407;49.882;10.920;2023-08-07T20:56:36;14.10;1.00
6740;DHT22;3407;49.882;10.920;2023-08-07T21:01:31;14.00;99.90
6740;DHT22;3407;49.882;10.920;2023-08-07T21:06:27;13.90;99.90
6740;DHT22;3407;49.882;10.920;2023-08-07T21:11:22;13.80;1.00
6740;DHT22;3407;49.882;10.920;2023-08-07T21:16:18;13.70;1.00
6740;DHT22;3407;49.882;10.920;2023-08-07T21:21:13;13.60;1.00
6740;DHT22;3407;49.882;10.920;2023-08-07T21:26:09;13.40;1.00
6740;DHT22;3407;49.882;10.920;2023-08-07T21:31:04;13.30;1.00
6740;DHT22;3407;49.882;10.920;2023-08-07T21:36:01;13.10;99.90
6740;DHT22;3407;49.882;10.920;2023-08-07T21:40:57;13.10;1.00
6740;DHT22;3407;49.882;10.920;2023-08-07T21:45:52;13.00;1.00
6740;DHT22;3407;49.882;10.920;2023-08-07T21:50:48;13.00;99.90
6740;DHT22;3407;49.882;10.920;2023-08-07T21:55:43;12.80;99.90
6740;DHT22;3407;49.882;10.920;2023-08-07T22:00:39;12.60;1.00
6740;DHT22;3407;49.882;10.920;2023-08-07T22:05:35;12.40;1.00
6740;DHT22;3407;49.882;10.920;2023-08-07T22:10:31;12.20;1.00
6740;DHT22;3407;49.882;10.920;2023-08-07T22:15:26;12.10;1.00
6740;DHT22;3407;49.882;10.920;2023-08-07T22:20:22;12.10;1.00
6740;DHT22;3407;49.882;10.920;2023-08-07T22:25:19;12.00;1.00
6740;DHT22;3407;49.882;10.920;2023-08-07T22:30:14;12.00;1.00
6740;DHT22;3407;49.882;10.920;2023-08-07T22:35:10;12.10;1.00
6740;DHT22;3407;49.882;10.920;2023-08-07T22:40:06;12.10;1.00
6740;DHT22;3407;49.882;10.920;2023-08-07T22:45:02;12.10;1.00
6740;DHT22;3407;49.882;10.920;2023-08-07T22:49:59;12.00;1.00
6740;DHT22;3407;49.882;10.920;2023-08-07T22:54:54;12.00;1.00
6740;DHT22;3407;49.882;10.920;2023-08-07T22:59:49;11.90;1.00
6740;DHT22;3407;49.882;10.920;2023-08-07T23:04:47;11.90;1.00
6740;DHT22;3407;49.882;10.920;2023-08-07T23:09:42;12.00;1.00
6740;DHT22;3407;49.882;10.920;2023-08-07T23:14:38;12.10;1.00
6740;DHT22;3407;49.882;10.920;2023-08-07T23:19:33;12.20;1.00
6740;DHT22;3407;49.882;10.920;2023-08-07T23:24:29;12.20;1.00
6740;DHT22;3407;49.882;10.920;2023-08-07T23:29:24;12.30;1.00
6740;DHT22;3407;49.882;10.920;2023-08-07T23:34:20;12.30;1.00
6740;DHT22;3407;49.882;10.920;2023-08-07T23:39:15;12.10;1.00
6740;DHT22;3407;49.882;10.920;2023-08-07T23:44:11;11.90;1.00
6740;DHT22;3407;49.882;10.920;2023-08-07T23:49:07;11.90;1.00
6740;DHT22;3407;49.882;10.920;2023-08-07T23:54:02;12.00;1.30
6740;DHT22;3407;49.882;10.920;2023-08-07T23:58:58;12.00;10.90
